sensor_id;sensor_type;location;lat;lon;timestamp;pressure;altitude;pressure_sealevel;temperature;humidity
50430;BME280;36359;41.556;-8.418;2022-12-11T00:01:14;99389.22;;;10.38;99.22
50430;BME280;36359;41.556;-8.418;2022-12-11T00:03:40;99385.47;;;10.14;99.87
50430;BME280;36359;41.556;-8.418;2022-12-11T00:06:07;99387.34;;;10.22;99.79
50430;BME280;36359;41.556;-8.418;2022-12-11T00:08:34;99384.50;;;10.32;100.00
50430;BME280;36359;41.556;-8.418;2022-12-11T00:11:00;99369.94;;;10.33;100.00
50430;BME280;36359;41.556;-8.418;2022-12-11T00:13:25;99371.25;;;10.20;99.06
50430;BME280;36359;41.556;-8.418;2022-12-11T00:15:51;99363.53;;;10.73;100.00
50430;BME280;36359;41.556;-8.418;2022-12-11T00:18:17;99347.97;;;10.59;99.50
50430;BME280;36359;41.556;-8.418;2022-12-11T00:20:43;99341.56;;;10.60;100.00
50430;BME280;36359;41.556;-8.418;2022-12-11T00:23:09;99334.50;;;10.82;100.00
50430;BME280;36359;41.556;-8.418;2022-12-11T00:25:43;99320.44;;;10.31;100.00
50430;BME280;36359;41.556;-8.418;2022-12-11T00:28:10;99309.63;;;9.98;100.00
50430;BME280;36359;41.556;-8.418;2022-12-11T00:30:41;99298.97;;;9.88;100.00
50430;BME280;36359;41.556;-8.418;2022-12-11T00:33:09;99281.66;;;10.06;100.00
50430;BME280;36359;41.556;-8.418;2022-12-11T00:35:44;99268.31;;;9.55;100.00
50430;BME280;36359;41.556;-8.418;2022-12-11T00:38:16;99265.47;;;9.65;100.00
50430;BME280;36359;41.556;-8.418;2022-12-11T00:40:42;99261.38;;;9.69;100.00
50430;BME280;36359;41.556;-8.418;2022-12-11T00:43:08;99256.13;;;9.35;100.00
50430;BME280;36359;41.556;-8.418;2022-12-11T00:45:36;99250.06;;;9.32;100.00
50430;BME280;36359;41.556;-8.418;2022-12-11T00:48:02;99233.47;;;9.36;100.00
50430;BME280;36359;41.556;-8.418;2022-12-11T00:50:28;99239.31;;;8.90;100.00
50430;BME280;36359;41.556;-8.418;2022-12-11T00:52:53;99221.53;;;8.79;100.00
50430;BME280;36359;41.556;-8.418;2022-12-11T00:55:19;99204.88;;;8.50;100.00
50430;BME280;36359;41.556;-8.418;2022-12-11T00:57:45;99206.63;;;8.59;100.00
50430;BME280;36359;41.556;-8.418;2022-12-11T01:00:12;99197.16;;;8.55;100.00
50430;BME280;36359;41.556;-8.418;2022-12-11T01:02:38;99181.28;;;8.60;100.00
50430;BME280;36359;41.556;-8.418;2022-12-11T01:05:04;99164.34;;;8.41;100.00
50430;BME280;36359;41.556;-8.418;2022-12-11T01:07:30;99157.50;;;8.21;100.00
50430;BME280;36359;41.556;-8.418;2022-12-11T01:09:55;99152.75;;;8.23;100.00
50430;BME280;36359;41.556;-8.418;2022-12-11T01:12:39;99159.63;;;8.09;100.00
50430;BME280;36359;41.556;-8.418;2022-12-11T01:15:05;99154.41;;;8.16;100.00
50430;BME280;36359;41.556;-8.418;2022-12-11T01:17:31;99147.34;;;8.15;100.00
50430;BME280;36359;41.556;-8.418;2022-12-11T01:19:57;99145.28;;;8.17;100.00
50430;BME280;36359;41.556;-8.418;2022-12-11T01:22:23;99127.53;;;8.14;100.00
50430;BME280;36359;41.556;-8.418;2022-12-11T01:24:48;99111.81;;;8.02;100.00
50430;BME280;36359;41.556;-8.418;2022-12-11T01:27:14;99109.50;;;8.15;100.00
50430;BME280;36359;41.556;-8.418;2022-12-11T01:29:40;99100.75;;;8.29;100.00
50430;BME280;36359;41.556;-8.418;2022-12-11T01:32:05;99100.41;;;8.24;100.00
50430;BME280;36359;41.556;-8.418;2022-12-11T01:34:31;99091.53;;;8.48;100.00
50430;BME280;36359;41.556;-8.418;2022-12-11T01:36:57;99086.28;;;8.38;100.00
50430;BME280;36359;41.556;-8.418;2022-12-11T01:39:23;99072.94;;;8.45;100.00
50430;BME280;36359;41.556;-8.418;2022-12-11T01:41:49;99046.69;;;8.29;100.00
50430;BME280;36359;41.556;-8.418;2022-12-11T01:46:41;99020.69;;;8.36;100.00
50430;BME280;36359;41.556;-8.418;2022-12-11T01:49:11;99008.19;;;8.19;100.00
50430;BME280;36359;41.556;-8.418;2022-12-11T01:54:16;99004.81;;;8.33;100.00
50430;BME280;36359;41.556;-8.418;2022-12-11T01:56:45;98987.22;;;8.29;100.00
50430;BME280;36359;41.556;-8.418;2022-12-11T01:59:15;98966.31;;;8.15;100.00
50430;BME280;36359;41.556;-8.418;2022-12-11T02:04:20;98985.44;;;8.62;100.00
50430;BME280;36359;41.556;-8.418;2022-12-11T02:06:48;99001.47;;;8.64;100.00
50430;BME280;36359;41.556;-8.418;2022-12-11T02:09:18;99014.47;;;8.52;100.00
50430;BME280;36359;41.556;-8.418;2022-12-11T02:14:53;98993.88;;;8.43;100.00
50430;BME280;36359;41.556;-8.418;2022-12-11T02:17:27;98980.31;;;8.35;100.00
50430;BME280;36359;41.556;-8.418;2022-12-11T02:20:07;98969.72;;;8.41;100.00
50430;BME280;36359;41.556;-8.418;2022-12-11T02:28:53;98945.19;;;8.35;100.00
50430;BME280;36359;41.556;-8.418;2022-12-11T02:31:25;98950.94;;;8.32;100.00
50430;BME280;36359;41.556;-8.418;2022-12-11T02:34:03;98951.31;;;8.45;100.00
50430;BME280;36359;41.556;-8.418;2022-12-11T02:36:35;98947.44;;;8.48;100.00
50430;BME280;36359;41.556;-8.418;2022-12-11T02:39:03;98940.50;;;8.45;100.00
50430;BME280;36359;41.556;-8.418;2022-12-11T02:41:31;98936.28;;;8.43;100.00
50430;BME280;36359;41.556;-8.418;2022-12-11T02:43:58;98937.28;;;8.41;100.00
50430;BME280;36359;41.556;-8.418;2022-12-11T02:46:27;98937.94;;;8.44;100.00
50430;BME280;36359;41.556;-8.418;2022-12-11T02:48:54;98907.38;;;8.43;100.00
50430;BME280;36359;41.556;-8.418;2022-12-11T02:51:25;98907.19;;;8.36;100.00
50430;BME280;36359;41.556;-8.418;2022-12-11T02:53:55;98903.16;;;8.24;100.00
50430;BME280;36359;41.556;-8.418;2022-12-11T02:56:33;98899.09;;;8.20;100.00
50430;BME280;36359;41.556;-8.418;2022-12-11T02:59:14;98882.34;;;8.57;100.00
50430;BME280;36359;41.556;-8.418;2022-12-11T03:01:42;98876.28;;;8.31;100.00
50430;BME280;36359;41.556;-8.418;2022-12-11T03:04:08;98873.91;;;8.36;100.00
50430;BME280;36359;41.556;-8.418;2022-12-11T03:06:37;98871.22;;;8.28;100.00
50430;BME280;36359;41.556;-8.418;2022-12-11T03:09:05;98865.13;;;8.26;100.00
50430;BME280;36359;41.556;-8.418;2022-12-11T03:11:31;98870.03;;;8.22;100.00
50430;BME280;36359;41.556;-8.418;2022-12-11T03:13:57;98876.13;;;8.24;100.00
50430;BME280;36359;41.556;-8.418;2022-12-11T03:16:37;98874.09;;;8.43;100.00
50430;BME280;36359;41.556;-8.418;2022-12-11T03:24:42;98836.94;;;8.45;100.00
50430;BME280;36359;41.556;-8.418;2022-12-11T03:27:26;98845.34;;;8.50;100.00
50430;BME280;36359;41.556;-8.418;2022-12-11T03:29:59;98835.56;;;8.49;100.00
50430;BME280;36359;41.556;-8.418;2022-12-11T03:32:35;98846.66;;;8.70;100.00
50430;BME280;36359;41.556;-8.418;2022-12-11T03:35:22;98838.84;;;8.83;100.00
50430;BME280;36359;41.556;-8.418;2022-12-11T03:37:50;98843.75;;;8.80;100.00
50430;BME280;36359;41.556;-8.418;2022-12-11T03:40:19;98842.56;;;8.82;100.00
50430;BME280;36359;41.556;-8.418;2022-12-11T03:42:48;98836.13;;;8.92;100.00
50430;BME280;36359;41.556;-8.418;2022-12-11T03:45:17;98823.28;;;8.85;100.00
50430;BME280;36359;41.556;-8.418;2022-12-11T03:47:45;98806.75;;;8.80;100.00
50430;BME280;36359;41.556;-8.418;2022-12-11T03:50:13;98807.00;;;8.94;100.00
50430;BME280;36359;41.556;-8.418;2022-12-11T03:52:42;98790.19;;;8.75;100.00
50430;BME280;36359;41.556;-8.418;2022-12-11T03:55:10;98779.34;;;8.83;100.00
50430;BME280;36359;41.556;-8.418;2022-12-11T03:57:37;98766.25;;;8.56;100.00
50430;BME280;36359;41.556;-8.418;2022-12-11T04:00:06;98761.22;;;8.53;100.00
50430;BME280;36359;41.556;-8.418;2022-12-11T04:02:37;98765.25;;;8.65;100.00
50430;BME280;36359;41.556;-8.418;2022-12-11T04:05:03;98781.72;;;8.78;100.00
50430;BME280;36359;41.556;-8.418;2022-12-11T04:07:29;98783.69;;;8.53;100.00
50430;BME280;36359;41.556;-8.418;2022-12-11T04:09:55;98771.88;;;8.54;100.00
50430;BME280;36359;41.556;-8.418;2022-12-11T04:12:21;98765.59;;;8.62;100.00
50430;BME280;36359;41.556;-8.418;2022-12-11T04:14:47;98767.72;;;8.75;100.00
50430;BME280;36359;41.556;-8.418;2022-12-11T04:17:35;98769.94;;;8.71;100.00
50430;BME280;36359;41.556;-8.418;2022-12-11T04:20:20;98758.28;;;8.71;100.00
50430;BME280;36359;41.556;-8.418;2022-12-11T04:23:05;98774.63;;;8.77;100.00
50430;BME280;36359;41.556;-8.418;2022-12-11T04:25:50;98772.13;;;8.68;100.00
50430;BME280;36359;41.556;-8.418;2022-12-11T04:28:16;98764.47;;;8.79;100.00
50430;BME280;36359;41.556;-8.418;2022-12-11T04:30:48;98753.81;;;8.86;100.00
50430;BME280;36359;41.556;-8.418;2022-12-11T04:33:14;98738.84;;;8.98;100.00
50430;BME280;36359;41.556;-8.418;2022-12-11T04:35:39;98736.78;;;8.77;100.00
50430;BME280;36359;41.556;-8.418;2022-12-11T04:38:05;98726.50;;;8.64;100.00
50430;BME280;36359;41.556;-8.418;2022-12-11T04:40:31;98721.06;;;9.04;100.00
50430;BME280;36359;41.556;-8.418;2022-12-11T04:42:56;98726.16;;;8.99;100.00
50430;BME280;36359;41.556;-8.418;2022-12-11T04:45:22;98722.34;;;8.62;100.00
50430;BME280;36359;41.556;-8.418;2022-12-11T04:47:48;98724.50;;;8.67;100.00
50430;BME280;36359;41.556;-8.418;2022-12-11T04:50:14;98719.81;;;8.92;100.00
50430;BME280;36359;41.556;-8.418;2022-12-11T04:52:41;98726.00;;;8.69;100.00
50430;BME280;36359;41.556;-8.418;2022-12-11T04:55:07;98724.72;;;8.57;100.00
50430;BME280;36359;41.556;-8.418;2022-12-11T04:57:33;98709.63;;;8.71;100.00
50430;BME280;36359;41.556;-8.418;2022-12-11T04:59:59;98695.00;;;8.49;100.00
50430;BME280;36359;41.556;-8.418;2022-12-11T05:02:25;98686.16;;;8.63;100.00
50430;BME280;36359;41.556;-8.418;2022-12-11T05:04:51;98676.56;;;8.83;100.00
50430;BME280;36359;41.556;-8.418;2022-12-11T05:07:17;98681.25;;;8.90;100.00
50430;BME280;36359;41.556;-8.418;2022-12-11T05:09:43;98679.03;;;8.93;100.00
50430;BME280;36359;41.556;-8.418;2022-12-11T05:12:08;98674.34;;;8.56;100.00
50430;BME280;36359;41.556;-8.418;2022-12-11T05:14:34;98680.63;;;8.56;100.00
50430;BME280;36359;41.556;-8.418;2022-12-11T05:17:00;98678.34;;;8.68;100.00
50430;BME280;36359;41.556;-8.418;2022-12-11T05:19:26;98658.28;;;8.62;100.00
50430;BME280;36359;41.556;-8.418;2022-12-11T05:21:52;98643.56;;;8.65;100.00
50430;BME280;36359;41.556;-8.418;2022-12-11T05:24:18;98636.28;;;8.66;100.00
50430;BME280;36359;41.556;-8.418;2022-12-11T05:26:44;98632.47;;;8.52;100.00
50430;BME280;36359;41.556;-8.418;2022-12-11T05:29:09;98631.72;;;8.66;100.00
50430;BME280;36359;41.556;-8.418;2022-12-11T05:31:35;98644.69;;;8.94;100.00
50430;BME280;36359;41.556;-8.418;2022-12-11T05:34:01;98630.22;;;8.86;100.00
50430;BME280;36359;41.556;-8.418;2022-12-11T05:36:29;98635.44;;;8.88;100.00
50430;BME280;36359;41.556;-8.418;2022-12-11T05:38:57;98635.94;;;8.92;100.00
50430;BME280;36359;41.556;-8.418;2022-12-11T05:41:25;98632.88;;;8.95;100.00
50430;BME280;36359;41.556;-8.418;2022-12-11T05:43:52;98620.19;;;9.18;100.00
50430;BME280;36359;41.556;-8.418;2022-12-11T05:46:21;98610.44;;;9.09;100.00
50430;BME280;36359;41.556;-8.418;2022-12-11T05:48:51;98615.13;;;9.15;100.00
50430;BME280;36359;41.556;-8.418;2022-12-11T05:51:18;98605.47;;;9.36;100.00
50430;BME280;36359;41.556;-8.418;2022-12-11T05:53:44;98599.50;;;9.55;100.00
50430;BME280;36359;41.556;-8.418;2022-12-11T05:56:16;98599.50;;;9.40;100.00
50430;BME280;36359;41.556;-8.418;2022-12-11T05:58:43;98599.13;;;9.43;100.00
50430;BME280;36359;41.556;-8.418;2022-12-11T06:01:26;98609.78;;;9.45;100.00
50430;BME280;36359;41.556;-8.418;2022-12-11T06:03:53;98600.69;;;9.38;100.00
50430;BME280;36359;41.556;-8.418;2022-12-11T06:06:19;98604.53;;;9.58;100.00
50430;BME280;36359;41.556;-8.418;2022-12-11T06:08:48;98599.69;;;9.53;100.00
50430;BME280;36359;41.556;-8.418;2022-12-11T06:11:14;98601.56;;;9.53;100.00
50430;BME280;36359;41.556;-8.418;2022-12-11T06:13:40;98611.38;;;9.54;100.00
50430;BME280;36359;41.556;-8.418;2022-12-11T06:16:06;98611.66;;;9.89;100.00
50430;BME280;36359;41.556;-8.418;2022-12-11T06:18:40;98612.78;;;10.09;100.00
50430;BME280;36359;41.556;-8.418;2022-12-11T06:21:14;98616.34;;;9.95;100.00
50430;BME280;36359;41.556;-8.418;2022-12-11T06:23:41;98611.84;;;9.87;100.00
50430;BME280;36359;41.556;-8.418;2022-12-11T06:26:07;98614.84;;;9.77;100.00
50430;BME280;36359;41.556;-8.418;2022-12-11T06:28:33;98623.25;;;9.83;100.00
50430;BME280;36359;41.556;-8.418;2022-12-11T06:31:00;98634.19;;;9.74;100.00
50430;BME280;36359;41.556;-8.418;2022-12-11T06:33:25;98636.81;;;9.83;100.00
50430;BME280;36359;41.556;-8.418;2022-12-11T06:35:51;98644.81;;;9.91;100.00
50430;BME280;36359;41.556;-8.418;2022-12-11T06:38:17;98638.84;;;10.10;100.00
50430;BME280;36359;41.556;-8.418;2022-12-11T06:40:43;98625.00;;;10.35;100.00
50430;BME280;36359;41.556;-8.418;2022-12-11T06:43:09;98629.94;;;10.16;100.00
50430;BME280;36359;41.556;-8.418;2022-12-11T06:45:38;98644.53;;;10.15;100.00
50430;BME280;36359;41.556;-8.418;2022-12-11T06:48:04;98645.00;;;10.19;100.00
50430;BME280;36359;41.556;-8.418;2022-12-11T06:50:29;98645.44;;;10.22;100.00
50430;BME280;36359;41.556;-8.418;2022-12-11T06:52:55;98645.66;;;10.36;99.22
50430;BME280;36359;41.556;-8.418;2022-12-11T06:55:21;98639.88;;;10.39;99.79
50430;BME280;36359;41.556;-8.418;2022-12-11T06:57:47;98643.50;;;10.16;97.41
50430;BME280;36359;41.556;-8.418;2022-12-11T07:00:13;98640.63;;;10.69;100.00
50430;BME280;36359;41.556;-8.418;2022-12-11T07:02:39;98647.63;;;10.12;99.64
50430;BME280;36359;41.556;-8.418;2022-12-11T07:05:05;98656.22;;;10.16;100.00
50430;BME280;36359;41.556;-8.418;2022-12-11T07:10:03;98654.25;;;10.24;98.61
50430;BME280;36359;41.556;-8.418;2022-12-11T07:12:29;98663.50;;;10.15;98.54
50430;BME280;36359;41.556;-8.418;2022-12-11T07:14:55;98666.03;;;10.32;99.23
50430;BME280;36359;41.556;-8.418;2022-12-11T07:17:20;98667.50;;;10.19;97.94
50430;BME280;36359;41.556;-8.418;2022-12-11T07:19:46;98662.94;;;10.20;98.31
50430;BME280;36359;41.556;-8.418;2022-12-11T07:22:12;98672.56;;;10.22;99.53
50430;BME280;36359;41.556;-8.418;2022-12-11T07:24:38;98679.31;;;10.41;100.00
50430;BME280;36359;41.556;-8.418;2022-12-11T07:27:03;98687.53;;;10.48;99.36
50430;BME280;36359;41.556;-8.418;2022-12-11T07:29:29;98685.72;;;10.55;98.66
50430;BME280;36359;41.556;-8.418;2022-12-11T07:31:55;98682.25;;;10.61;99.54
50430;BME280;36359;41.556;-8.418;2022-12-11T07:34:20;98679.94;;;10.43;97.54
50430;BME280;36359;41.556;-8.418;2022-12-11T07:36:46;98683.00;;;10.55;99.09
50430;BME280;36359;41.556;-8.418;2022-12-11T07:39:12;98679.38;;;10.63;99.46
50430;BME280;36359;41.556;-8.418;2022-12-11T07:41:38;98682.19;;;10.55;98.47
50430;BME280;36359;41.556;-8.418;2022-12-11T07:44:09;98678.59;;;10.69;100.00
50430;BME280;36359;41.556;-8.418;2022-12-11T07:46:36;98672.00;;;10.57;98.96
50430;BME280;36359;41.556;-8.418;2022-12-11T07:49:04;98654.59;;;10.51;100.00
50430;BME280;36359;41.556;-8.418;2022-12-11T07:51:32;98657.41;;;10.58;99.79
50430;BME280;36359;41.556;-8.418;2022-12-11T07:54:00;98677.53;;;10.49;98.59
50430;BME280;36359;41.556;-8.418;2022-12-11T07:56:28;98676.59;;;10.41;98.76
50430;BME280;36359;41.556;-8.418;2022-12-11T07:58:54;98675.19;;;10.16;100.00
50430;BME280;36359;41.556;-8.418;2022-12-11T08:01:23;98667.91;;;10.16;100.00
50430;BME280;36359;41.556;-8.418;2022-12-11T08:03:50;98687.94;;;10.30;100.00
50430;BME280;36359;41.556;-8.418;2022-12-11T08:06:16;98693.25;;;10.38;99.63
50430;BME280;36359;41.556;-8.418;2022-12-11T08:08:42;98698.75;;;10.45;100.00
50430;BME280;36359;41.556;-8.418;2022-12-11T08:11:11;98699.97;;;10.42;99.86
50430;BME280;36359;41.556;-8.418;2022-12-11T08:13:37;98712.75;;;10.63;100.00
50430;BME280;36359;41.556;-8.418;2022-12-11T08:16:05;98735.66;;;10.61;99.46
50430;BME280;36359;41.556;-8.418;2022-12-11T08:18:32;98730.16;;;10.54;98.75
50430;BME280;36359;41.556;-8.418;2022-12-11T08:21:07;98740.44;;;10.59;98.79
50430;BME280;36359;41.556;-8.418;2022-12-11T08:23:33;98750.34;;;10.66;99.09
50430;BME280;36359;41.556;-8.418;2022-12-11T08:26:01;98749.88;;;10.63;99.77
50430;BME280;36359;41.556;-8.418;2022-12-11T08:28:28;98750.56;;;10.65;99.45
50430;BME280;36359;41.556;-8.418;2022-12-11T08:30:54;98757.59;;;10.96;98.98
50430;BME280;36359;41.556;-8.418;2022-12-11T08:33:19;98750.06;;;11.12;99.41
50430;BME280;36359;41.556;-8.418;2022-12-11T08:35:46;98750.19;;;11.26;98.16
50430;BME280;36359;41.556;-8.418;2022-12-11T08:38:12;98749.47;;;11.17;96.08
50430;BME280;36359;41.556;-8.418;2022-12-11T08:40:37;98746.63;;;11.04;97.79
50430;BME280;36359;41.556;-8.418;2022-12-11T08:43:03;98748.41;;;10.97;98.20
50430;BME280;36359;41.556;-8.418;2022-12-11T08:45:29;98753.41;;;11.14;97.65
50430;BME280;36359;41.556;-8.418;2022-12-11T08:47:55;98756.72;;;11.10;96.79
50430;BME280;36359;41.556;-8.418;2022-12-11T08:50:20;98760.03;;;10.90;97.27
50430;BME280;36359;41.556;-8.418;2022-12-11T08:52:46;98762.91;;;11.04;96.50
50430;BME280;36359;41.556;-8.418;2022-12-11T08:55:12;98769.22;;;10.89;97.45
50430;BME280;36359;41.556;-8.418;2022-12-11T08:57:37;98780.41;;;11.01;98.19
50430;BME280;36359;41.556;-8.418;2022-12-11T09:00:06;98785.19;;;10.99;96.66
50430;BME280;36359;41.556;-8.418;2022-12-11T09:02:33;98794.94;;;10.79;96.88
50430;BME280;36359;41.556;-8.418;2022-12-11T09:04:59;98802.53;;;10.68;96.93
50430;BME280;36359;41.556;-8.418;2022-12-11T09:07:25;98798.00;;;11.05;98.49
50430;BME280;36359;41.556;-8.418;2022-12-11T09:09:53;98817.06;;;11.27;96.25
50430;BME280;36359;41.556;-8.418;2022-12-11T09:12:19;98811.38;;;11.43;96.54
50430;BME280;36359;41.556;-8.418;2022-12-11T09:14:45;98804.41;;;11.55;95.61
50430;BME280;36359;41.556;-8.418;2022-12-11T09:17:10;98807.66;;;11.44;95.23
50430;BME280;36359;41.556;-8.418;2022-12-11T09:19:36;98802.13;;;11.37;96.26
50430;BME280;36359;41.556;-8.418;2022-12-11T09:22:02;98796.13;;;11.42;97.26
50430;BME280;36359;41.556;-8.418;2022-12-11T09:24:28;98797.63;;;11.45;96.87
50430;BME280;36359;41.556;-8.418;2022-12-11T09:26:53;98795.03;;;11.36;96.58
50430;BME280;36359;41.556;-8.418;2022-12-11T09:29:19;98813.59;;;11.54;95.86
50430;BME280;36359;41.556;-8.418;2022-12-11T09:31:45;98822.63;;;11.62;95.44
50430;BME280;36359;41.556;-8.418;2022-12-11T09:34:12;98820.63;;;11.49;93.65
50430;BME280;36359;41.556;-8.418;2022-12-11T09:36:39;98822.91;;;11.45;96.36
50430;BME280;36359;41.556;-8.418;2022-12-11T09:39:06;98825.06;;;11.35;95.21
50430;BME280;36359;41.556;-8.418;2022-12-11T09:44:46;98817.97;;;11.92;94.35
50430;BME280;36359;41.556;-8.418;2022-12-11T09:47:33;98829.22;;;11.89;93.36
50430;BME280;36359;41.556;-8.418;2022-12-11T09:52:54;98834.13;;;12.00;92.52
50430;BME280;36359;41.556;-8.418;2022-12-11T09:55:24;98841.31;;;12.08;94.92
50430;BME280;36359;41.556;-8.418;2022-12-11T10:06:40;98865.66;;;12.16;95.31
50430;BME280;36359;41.556;-8.418;2022-12-11T10:16:58;98897.88;;;12.19;95.57
50430;BME280;36359;41.556;-8.418;2022-12-11T10:19:29;98906.94;;;12.26;95.85
50430;BME280;36359;41.556;-8.418;2022-12-11T10:21:56;98922.88;;;12.08;96.67
50430;BME280;36359;41.556;-8.418;2022-12-11T10:24:38;98920.41;;;12.13;97.42
50430;BME280;36359;41.556;-8.418;2022-12-11T10:27:17;98931.75;;;12.16;97.19
50430;BME280;36359;41.556;-8.418;2022-12-11T10:29:45;98931.69;;;12.10;98.88
50430;BME280;36359;41.556;-8.418;2022-12-11T10:38:19;98936.50;;;12.14;98.89
50430;BME280;36359;41.556;-8.418;2022-12-11T10:40:49;98933.78;;;11.93;100.00
50430;BME280;36359;41.556;-8.418;2022-12-11T10:43:16;98937.72;;;11.90;100.00
50430;BME280;36359;41.556;-8.418;2022-12-11T10:45:51;98949.06;;;11.94;100.00
50430;BME280;36359;41.556;-8.418;2022-12-11T10:48:19;98954.50;;;11.94;100.00
50430;BME280;36359;41.556;-8.418;2022-12-11T10:50:55;98941.06;;;12.07;100.00
50430;BME280;36359;41.556;-8.418;2022-12-11T10:53:22;98941.44;;;12.25;99.80
50430;BME280;36359;41.556;-8.418;2022-12-11T10:55:49;98950.84;;;12.44;98.71
50430;BME280;36359;41.556;-8.418;2022-12-11T10:58:18;98957.44;;;12.35;98.64
50430;BME280;36359;41.556;-8.418;2022-12-11T11:00:45;98965.25;;;12.23;99.28
50430;BME280;36359;41.556;-8.418;2022-12-11T11:03:21;98975.84;;;11.82;100.00
50430;BME280;36359;41.556;-8.418;2022-12-11T11:05:48;98993.53;;;11.56;100.00
50430;BME280;36359;41.556;-8.418;2022-12-11T11:08:17;98983.69;;;11.41;100.00
50430;BME280;36359;41.556;-8.418;2022-12-11T11:10:57;98974.22;;;11.66;100.00
50430;BME280;36359;41.556;-8.418;2022-12-11T11:13:26;98969.69;;;11.73;100.00
50430;BME280;36359;41.556;-8.418;2022-12-11T11:15:59;98977.75;;;11.81;100.00
50430;BME280;36359;41.556;-8.418;2022-12-11T11:18:26;98974.50;;;11.86;100.00
50430;BME280;36359;41.556;-8.418;2022-12-11T11:20:54;98979.53;;;11.89;100.00
50430;BME280;36359;41.556;-8.418;2022-12-11T11:23:20;98990.88;;;11.93;100.00
50430;BME280;36359;41.556;-8.418;2022-12-11T11:25:52;99007.56;;;11.90;100.00
50430;BME280;36359;41.556;-8.418;2022-12-11T11:28:22;99007.19;;;11.93;100.00
50430;BME280;36359;41.556;-8.418;2022-12-11T11:33:24;99007.91;;;12.01;100.00
50430;BME280;36359;41.556;-8.418;2022-12-11T11:35:56;98992.50;;;12.09;100.00
50430;BME280;36359;41.556;-8.418;2022-12-11T11:38:57;98970.50;;;12.03;100.00
50430;BME280;36359;41.556;-8.418;2022-12-11T11:46:26;98977.50;;;12.13;100.00
50430;BME280;36359;41.556;-8.418;2022-12-11T11:51:46;98983.97;;;12.12;100.00
50430;BME280;36359;41.556;-8.418;2022-12-11T11:54:26;98980.44;;;11.96;100.00
50430;BME280;36359;41.556;-8.418;2022-12-11T11:56:55;98998.59;;;12.11;100.00
50430;BME280;36359;41.556;-8.418;2022-12-11T11:59:32;98999.78;;;12.23;100.00
50430;BME280;36359;41.556;-8.418;2022-12-11T12:02:00;99003.13;;;12.03;100.00
50430;BME280;36359;41.556;-8.418;2022-12-11T12:04:33;99001.59;;;12.16;100.00
50430;BME280;36359;41.556;-8.418;2022-12-11T12:15:18;98992.34;;;12.32;100.00
50430;BME280;36359;41.556;-8.418;2022-12-11T12:17:54;98984.91;;;12.62;100.00
50430;BME280;36359;41.556;-8.418;2022-12-11T12:20:34;98978.53;;;12.55;100.00
50430;BME280;36359;41.556;-8.418;2022-12-11T12:25:42;99008.88;;;12.52;100.00
50430;BME280;36359;41.556;-8.418;2022-12-11T12:39:46;99009.47;;;12.11;100.00
50430;BME280;36359;41.556;-8.418;2022-12-11T12:47:41;99027.22;;;12.07;100.00
50430;BME280;36359;41.556;-8.418;2022-12-11T12:50:19;99037.75;;;11.65;100.00
50430;BME280;36359;41.556;-8.418;2022-12-11T12:52:46;99045.22;;;11.93;100.00
50430;BME280;36359;41.556;-8.418;2022-12-11T12:55:27;99059.22;;;12.26;100.00
50430;BME280;36359;41.556;-8.418;2022-12-11T12:57:56;99063.03;;;12.89;100.00
50430;BME280;36359;41.556;-8.418;2022-12-11T13:00:44;99067.16;;;12.64;100.00
50430;BME280;36359;41.556;-8.418;2022-12-11T13:05:42;99077.41;;;12.62;100.00
50430;BME280;36359;41.556;-8.418;2022-12-11T13:08:10;99090.81;;;12.63;100.00
50430;BME280;36359;41.556;-8.418;2022-12-11T13:10:39;99085.91;;;12.37;100.00
50430;BME280;36359;41.556;-8.418;2022-12-11T13:13:35;99079.53;;;11.94;100.00
50430;BME280;36359;41.556;-8.418;2022-12-11T13:18:40;99077.72;;;12.16;100.00
50430;BME280;36359;41.556;-8.418;2022-12-11T13:21:53;99064.94;;;12.31;100.00
50430;BME280;36359;41.556;-8.418;2022-12-11T13:26:46;99059.94;;;12.35;100.00
50430;BME280;36359;41.556;-8.418;2022-12-11T13:32:20;99056.91;;;12.87;100.00
50430;BME280;36359;41.556;-8.418;2022-12-11T13:34:57;99063.28;;;12.52;100.00
50430;BME280;36359;41.556;-8.418;2022-12-11T13:37:28;99061.22;;;12.17;100.00
50430;BME280;36359;41.556;-8.418;2022-12-11T13:44:57;99077.09;;;12.35;100.00
50430;BME280;36359;41.556;-8.418;2022-12-11T13:47:24;99068.25;;;12.26;100.00
50430;BME280;36359;41.556;-8.418;2022-12-11T13:49:54;99070.88;;;12.56;100.00
50430;BME280;36359;41.556;-8.418;2022-12-11T13:52:25;99079.84;;;12.20;100.00
50430;BME280;36359;41.556;-8.418;2022-12-11T13:54:53;99086.59;;;12.61;100.00
50430;BME280;36359;41.556;-8.418;2022-12-11T13:57:22;99088.75;;;12.65;100.00
50430;BME280;36359;41.556;-8.418;2022-12-11T13:59:57;99085.91;;;12.73;100.00
50430;BME280;36359;41.556;-8.418;2022-12-11T14:02:38;99080.38;;;12.67;100.00
50430;BME280;36359;41.556;-8.418;2022-12-11T14:05:11;99093.03;;;12.75;100.00
50430;BME280;36359;41.556;-8.418;2022-12-11T14:07:39;99092.03;;;12.82;100.00
50430;BME280;36359;41.556;-8.418;2022-12-11T14:12:50;99086.91;;;12.94;100.00
50430;BME280;36359;41.556;-8.418;2022-12-11T14:15:18;99095.97;;;13.23;100.00
50430;BME280;36359;41.556;-8.418;2022-12-11T14:17:44;99096.75;;;13.16;100.00
50430;BME280;36359;41.556;-8.418;2022-12-11T14:20:17;99099.31;;;13.18;100.00
50430;BME280;36359;41.556;-8.418;2022-12-11T14:22:44;99090.25;;;13.17;100.00
50430;BME280;36359;41.556;-8.418;2022-12-11T14:25:27;99109.50;;;13.09;100.00
50430;BME280;36359;41.556;-8.418;2022-12-11T14:27:54;99111.81;;;13.12;100.00
50430;BME280;36359;41.556;-8.418;2022-12-11T14:30:22;99114.19;;;13.44;100.00
50430;BME280;36359;41.556;-8.418;2022-12-11T14:32:48;99125.47;;;13.40;100.00
50430;BME280;36359;41.556;-8.418;2022-12-11T14:35:30;99114.78;;;13.67;100.00
50430;BME280;36359;41.556;-8.418;2022-12-11T14:37:59;99123.97;;;13.94;99.84
50430;BME280;36359;41.556;-8.418;2022-12-11T14:42:59;99125.13;;;14.13;98.71
50430;BME280;36359;41.556;-8.418;2022-12-11T14:45:35;99131.25;;;13.87;100.00
50430;BME280;36359;41.556;-8.418;2022-12-11T14:48:07;99125.78;;;14.15;98.58
50430;BME280;36359;41.556;-8.418;2022-12-11T14:50:44;99122.50;;;13.92;99.25